createdAt,value
2023-04-24T00:00:48.329Z,3.28
2023-04-24T00:03:15.228Z,3.50
2023-04-24T00:05:42.202Z,3.25
2023-04-24T00:08:08.949Z,2.95
2023-04-24T00:10:35.808Z,2.50
2023-04-24T00:13:03.076Z,2.40
2023-04-24T00:15:29.606Z,2.33
2023-04-24T00:17:56.577Z,2.28
2023-04-24T00:20:23.656Z,2.20
2023-04-24T00:22:50.518Z,2.05
2023-04-24T00:25:17.097Z,2.95
2023-04-24T00:27:43.761Z,2.20
2023-04-24T00:30:10.394Z,2.20
2023-04-24T00:32:36.953Z,1.48
2023-04-24T00:35:03.570Z,1.50
2023-04-24T00:37:30.214Z,1.58
2023-04-24T00:39:56.743Z,1.80
2023-04-24T00:42:23.531Z,1.42
2023-04-24T00:44:50.431Z,2.03
2023-04-24T00:47:17.289Z,2.03
2023-04-24T00:49:44.446Z,1.73
2023-04-24T00:52:11.789Z,1.52
2023-04-24T00:54:38.328Z,1.50
2023-04-24T00:57:04.998Z,1.95
2023-04-24T00:59:31.604Z,1.40
2023-04-24T01:01:58.691Z,1.50
2023-04-24T01:04:25.868Z,1.92
2023-04-24T01:06:53.565Z,1.50
2023-04-24T01:09:21.484Z,1.70
2023-04-24T01:11:48.110Z,2.13
2023-04-24T01:14:14.665Z,2.28
2023-04-24T01:16:42.616Z,2.47
2023-04-24T01:19:10.853Z,2.55
2023-04-24T01:21:38.229Z,3.78
2023-04-24T01:24:06.122Z,3.63
2023-04-24T01:26:32.999Z,2.78
2023-04-24T01:28:59.617Z,2.10
2023-04-24T01:31:26.512Z,2.42
2023-04-24T01:33:53.505Z,2.65
2023-04-24T01:36:20.973Z,2.60
2023-04-24T01:38:47.538Z,2.53
2023-04-24T01:41:14.232Z,2.83
2023-04-24T01:43:41.296Z,2.67
2023-04-24T01:46:08.240Z,2.75
2023-04-24T01:48:36.452Z,2.40
2023-04-24T01:51:03.185Z,2.65
2023-04-24T01:53:30.293Z,2.97
2023-04-24T01:55:57.043Z,2.75
2023-04-24T01:58:25.769Z,3.17
2023-04-24T02:00:52.406Z,2.42
2023-04-24T02:03:19.215Z,3.05
2023-04-24T02:05:46.401Z,2.95
2023-04-24T02:08:13.013Z,3.10
2023-04-24T02:10:39.663Z,2.72
2023-04-24T02:13:06.323Z,4.05
2023-04-24T02:15:32.932Z,3.00
2023-04-24T02:17:59.558Z,3.20
2023-04-24T02:20:28.797Z,3.40
2023-04-24T02:22:57.124Z,3.38
2023-04-24T02:25:23.763Z,3.78
2023-04-24T02:27:50.360Z,2.97
2023-04-24T02:30:16.996Z,4.45
2023-04-24T02:32:43.511Z,3.72
2023-04-24T02:35:11.224Z,3.60
2023-04-24T02:37:37.769Z,3.25
2023-04-24T02:40:05.096Z,3.40
2023-04-24T02:42:31.602Z,3.78
2023-04-24T02:44:58.141Z,4.38
2023-04-24T02:47:24.930Z,4.03
2023-04-24T02:49:51.700Z,4.65
2023-04-24T02:52:18.448Z,4.25
2023-04-24T02:54:45.243Z,4.22
2023-04-24T02:57:11.774Z,3.78
2023-04-24T02:59:41.795Z,3.70
2023-04-24T03:02:08.680Z,4.13
2023-04-24T03:04:35.381Z,4.18
2023-04-24T03:07:02.458Z,3.90
2023-04-24T03:09:29.037Z,4.22
2023-04-24T03:11:56.647Z,4.97
2023-04-24T03:14:25.308Z,4.57
2023-04-24T03:16:52.027Z,4.97
2023-04-24T03:19:18.793Z,4.70
2023-04-24T03:21:57.293Z,4.97
2023-04-24T03:24:24.248Z,4.18
2023-04-24T03:26:50.955Z,5.72
2023-04-24T03:29:32.475Z,4.95
2023-04-24T03:31:59.416Z,4.90
2023-04-24T03:34:29.202Z,6.25
2023-04-24T03:36:57.279Z,5.75
2023-04-24T03:39:26.321Z,5.47
2023-04-24T03:41:55.652Z,6.22
2023-04-24T03:44:27.902Z,5.72
2023-04-24T03:46:55.371Z,5.95
2023-04-24T03:49:24.238Z,5.65
2023-04-24T03:51:51.771Z,5.95
2023-04-24T03:54:22.586Z,5.70
2023-04-24T03:56:51.049Z,5.20
2023-04-24T03:59:18.249Z,6.28
2023-04-24T04:01:50.036Z,6.28
2023-04-24T04:04:17.887Z,5.15
2023-04-24T04:06:45.538Z,5.32
2023-04-24T04:09:12.453Z,6.18
2023-04-24T04:11:39.120Z,5.80
2023-04-24T04:14:06.372Z,5.55
2023-04-24T04:16:34.719Z,6.35
2023-04-24T04:19:04.084Z,5.70
2023-04-24T04:21:32.228Z,5.60
2023-04-24T04:24:12.854Z,6.25
2023-04-24T04:26:47.417Z,6.60
2023-04-24T04:29:21.638Z,6.00
2023-04-24T04:31:50.665Z,6.82
2023-04-24T04:34:17.279Z,6.40
2023-04-24T04:36:45.402Z,6.90
2023-04-24T04:39:31.701Z,6.95
2023-04-24T04:42:07.887Z,7.68
2023-04-24T04:44:41.264Z,6.97
2023-04-24T04:49:39.615Z,6.13
2023-04-24T04:52:11.011Z,5.78
2023-04-24T04:54:37.882Z,6.63
2023-04-24T04:57:04.734Z,5.88
2023-04-24T04:59:32.192Z,6.28
2023-04-24T05:02:05.104Z,5.95
2023-04-24T05:04:32.413Z,6.13
2023-04-24T05:06:59.250Z,6.97
2023-04-24T05:09:30.347Z,6.20
2023-04-24T05:12:03.268Z,5.68
2023-04-24T05:14:34.402Z,5.00
2023-04-24T05:17:01.980Z,4.75
2023-04-24T05:19:29.969Z,4.53
2023-04-24T05:21:56.557Z,4.20
2023-04-24T05:24:23.327Z,4.07
2023-04-24T05:27:06.784Z,4.50
2023-04-24T05:29:38.285Z,5.07
2023-04-24T05:32:05.889Z,4.63
2023-04-24T05:34:32.871Z,4.40
2023-04-24T05:36:59.472Z,4.70
2023-04-24T05:39:34.292Z,3.70
2023-04-24T05:42:11.175Z,4.65
2023-04-24T05:44:37.841Z,4.20
2023-04-24T05:47:04.979Z,3.70
2023-04-24T05:49:32.631Z,3.92
2023-04-24T05:51:59.417Z,4.70
2023-04-24T05:54:26.022Z,5.10
2023-04-24T05:56:52.934Z,3.22
2023-04-24T05:59:30.027Z,3.60
2023-04-24T06:01:57.975Z,4.25
2023-04-24T06:04:25.944Z,2.97
2023-04-24T06:06:56.802Z,4.22
2023-04-24T06:09:23.955Z,2.63
2023-04-24T06:11:50.936Z,2.45
2023-04-24T06:14:18.266Z,2.20
2023-04-24T06:17:03.274Z,2.70
2023-04-24T06:19:36.905Z,2.72
2023-04-24T06:22:03.843Z,3.00
2023-04-24T06:24:31.047Z,2.78
2023-04-24T06:26:59.986Z,3.13
2023-04-24T06:29:26.555Z,3.30
2023-04-24T06:31:53.197Z,3.40
2023-04-24T06:34:20.066Z,3.35
2023-04-24T06:36:47.611Z,3.53
2023-04-24T06:39:14.073Z,3.95
2023-04-24T06:41:41.133Z,2.90
2023-04-24T06:44:09.780Z,3.75
2023-04-24T06:46:36.496Z,3.65
2023-04-24T06:49:03.723Z,3.13
2023-04-24T06:51:30.356Z,2.90
2023-04-24T06:53:59.689Z,3.35
2023-04-24T06:56:30.483Z,3.03
2023-04-24T06:58:57.255Z,3.47
2023-04-24T07:01:24.096Z,3.72
2023-04-24T07:03:51.102Z,3.17
2023-04-24T07:06:19.668Z,2.83
2023-04-24T07:08:46.668Z,2.80
2023-04-24T07:11:13.303Z,2.95
2023-04-24T07:13:42.987Z,3.35
2023-04-24T07:16:09.961Z,3.40
2023-04-24T07:18:37.534Z,3.42
2023-04-24T07:21:04.050Z,3.45
2023-04-24T07:23:31.741Z,3.15
2023-04-24T07:25:58.800Z,2.97
2023-04-24T07:28:25.844Z,3.85
2023-04-24T07:30:55.107Z,2.60
2023-04-24T07:33:22.063Z,2.40
2023-04-24T07:35:48.860Z,2.47
2023-04-24T07:38:15.495Z,2.00
2023-04-24T07:40:42.857Z,2.63
2023-04-24T07:43:09.525Z,2.50
2023-04-24T07:45:38.605Z,2.35
2023-04-24T07:48:05.531Z,2.70
2023-04-24T07:50:32.391Z,2.50
2023-04-24T07:52:58.998Z,2.80
2023-04-24T07:55:28.179Z,2.40
2023-04-24T07:57:56.272Z,2.70
2023-04-24T08:00:22.903Z,2.13
2023-04-24T08:02:49.904Z,3.08
2023-04-24T08:05:17.137Z,2.63
2023-04-24T08:07:43.939Z,1.90
2023-04-24T08:10:11.496Z,2.05
2023-04-24T08:12:38.310Z,2.15
2023-04-24T08:15:05.619Z,1.92
2023-04-24T08:17:32.179Z,1.70
2023-04-24T08:20:02.404Z,2.15
2023-04-24T08:22:29.320Z,2.17
2023-04-24T08:24:57.051Z,1.80
2023-04-24T08:27:24.377Z,2.03
2023-04-24T08:29:51.170Z,2.15
2023-04-24T08:32:17.961Z,2.47
2023-04-24T08:34:44.431Z,1.80
2023-04-24T08:37:11.115Z,1.77
2023-04-24T08:39:37.950Z,2.03
2023-04-24T08:42:08.938Z,1.80
2023-04-24T08:44:36.805Z,2.22
2023-04-24T08:47:03.367Z,1.83
2023-04-24T08:49:30.497Z,2.20
2023-04-24T08:51:57.502Z,2.15
2023-04-24T08:54:24.366Z,2.20
2023-04-24T08:56:51.434Z,2.45
2023-04-24T08:59:18.104Z,2.08
2023-04-24T09:01:46.218Z,2.33
2023-04-24T09:04:14.569Z,1.70
2023-04-24T09:06:41.531Z,1.73
2023-04-24T09:09:09.223Z,1.20
2023-04-24T09:11:35.852Z,1.48
2023-04-24T09:14:02.658Z,1.48
2023-04-24T09:16:29.330Z,1.55
2023-04-24T09:18:56.457Z,1.35
2023-04-24T09:21:24.357Z,1.20
2023-04-24T09:24:01.481Z,1.25
2023-04-24T09:26:30.306Z,1.50
2023-04-24T09:28:56.804Z,1.00
2023-04-24T09:31:24.206Z,1.35
2023-04-24T09:34:08.358Z,1.92
2023-04-24T09:36:39.291Z,1.10
2023-04-24T09:39:10.588Z,1.10
2023-04-24T09:41:44.255Z,1.20
2023-04-24T09:44:14.975Z,1.00
2023-04-24T09:46:42.568Z,1.00
2023-04-24T09:49:17.390Z,1.15
2023-04-24T09:51:44.154Z,1.42
2023-04-24T09:54:22.180Z,1.15
2023-04-24T09:56:50.329Z,1.10
2023-04-24T09:59:18.141Z,1.00
2023-04-24T10:01:45.934Z,1.77
2023-04-24T10:04:22.754Z,1.27
2023-04-24T10:06:50.385Z,0.90
2023-04-24T10:09:17.307Z,1.48
2023-04-24T10:11:46.161Z,1.33
2023-04-24T10:14:21.584Z,1.00
2023-04-24T10:16:48.803Z,1.35
2023-04-24T10:19:26.533Z,0.73
2023-04-24T10:21:53.586Z,0.93
2023-04-24T10:24:22.875Z,0.90
2023-04-24T10:26:49.629Z,1.02
2023-04-24T10:29:18.087Z,1.33
2023-04-24T10:31:48.245Z,0.90
2023-04-24T10:34:33.057Z,1.42
2023-04-24T10:36:59.651Z,1.40
2023-04-24T10:39:27.664Z,1.52
2023-04-24T10:41:55.399Z,1.52
2023-04-24T10:44:23.348Z,1.27
2023-04-24T10:46:54.019Z,1.02
2023-04-24T10:49:28.882Z,1.40
2023-04-24T10:52:00.877Z,1.40
2023-04-24T10:54:35.006Z,1.65
2023-04-24T10:57:23.071Z,1.40
2023-04-24T11:00:10.604Z,1.13
2023-04-24T11:02:38.398Z,2.03
2023-04-24T11:05:05.342Z,1.25
2023-04-24T11:07:51.966Z,1.10
2023-04-24T11:10:39.102Z,1.10
2023-04-24T11:13:05.708Z,1.50
2023-04-24T11:15:32.220Z,1.48
2023-04-24T11:17:59.061Z,1.20
2023-04-24T11:20:28.549Z,1.30
2023-04-24T11:22:56.212Z,1.40
2023-04-24T11:25:26.252Z,1.50
2023-04-24T11:28:03.655Z,1.25
2023-04-24T11:30:30.623Z,1.23
2023-04-24T11:33:03.026Z,0.95
2023-04-24T11:35:31.719Z,1.65
2023-04-24T11:40:28.208Z,1.40
2023-04-24T11:42:57.449Z,1.45
2023-04-24T11:45:25.475Z,1.30
2023-04-24T11:47:52.238Z,1.33
2023-04-24T11:50:20.657Z,1.27
2023-04-24T11:52:47.995Z,1.23
2023-04-24T11:55:20.532Z,1.30
2023-04-24T11:57:48.356Z,1.45
2023-04-24T12:00:22.388Z,1.58
2023-04-24T12:02:50.304Z,1.20
2023-04-24T12:05:24.747Z,1.17
2023-04-24T12:07:51.737Z,1.27
2023-04-24T12:10:22.299Z,1.38
2023-04-24T12:12:51.409Z,1.58
2023-04-24T12:15:19.038Z,1.52
2023-04-24T12:17:45.955Z,1.77
2023-04-24T12:20:15.728Z,1.25
2023-04-24T12:22:52.184Z,1.63
2023-04-24T12:25:19.859Z,1.85
2023-04-24T12:27:46.834Z,1.55
2023-04-24T12:30:14.960Z,2.72
2023-04-24T12:32:49.200Z,2.00
2023-04-24T12:35:26.546Z,1.85
2023-04-24T12:37:53.084Z,1.50
2023-04-24T12:40:21.000Z,1.60
2023-04-24T12:42:50.981Z,1.40
2023-04-24T12:45:18.788Z,1.95
2023-04-24T12:47:45.904Z,1.88
2023-04-24T12:50:13.469Z,2.00
2023-04-24T12:52:40.445Z,1.48
2023-04-24T12:55:10.410Z,1.80
2023-04-24T12:57:38.026Z,2.05
2023-04-24T13:00:05.563Z,2.15
2023-04-24T13:02:32.551Z,1.85
2023-04-24T13:04:59.667Z,1.90
2023-04-24T13:07:26.409Z,1.90
2023-04-24T13:09:53.054Z,2.28
2023-04-24T13:12:19.894Z,1.80
2023-04-24T13:14:46.691Z,2.75
2023-04-24T13:17:14.152Z,1.70
2023-04-24T13:19:41.639Z,1.73
2023-04-24T13:22:10.951Z,2.10
2023-04-24T13:24:39.860Z,1.80
2023-04-24T13:27:06.671Z,2.15
2023-04-24T13:29:33.255Z,1.77
2023-04-24T13:32:00.638Z,1.80
2023-04-24T13:34:27.426Z,1.70
2023-04-24T13:36:54.823Z,1.70
2023-04-24T13:39:22.102Z,1.83
2023-04-24T13:41:51.955Z,2.10
2023-04-24T13:44:19.666Z,1.77
2023-04-24T13:46:47.038Z,2.10
2023-04-24T13:49:14.445Z,2.50
2023-04-24T13:51:41.395Z,1.90
2023-04-24T13:54:08.042Z,2.03
2023-04-24T13:56:34.707Z,2.03
2023-04-24T13:59:04.667Z,2.30
2023-04-24T14:01:31.920Z,2.30
2023-04-24T14:03:58.733Z,2.28
2023-04-24T14:06:25.458Z,2.50
2023-04-24T14:08:52.305Z,2.50
2023-04-24T14:11:19.798Z,2.45
2023-04-24T14:13:47.037Z,2.40
2023-04-24T14:16:14.041Z,2.30
2023-04-24T14:18:40.796Z,2.65
2023-04-24T14:21:07.551Z,2.67
2023-04-24T14:23:34.254Z,2.50
2023-04-24T14:26:00.935Z,2.67
2023-04-24T14:28:27.602Z,2.25
2023-04-24T14:30:54.467Z,2.00
2023-04-24T14:33:21.070Z,2.40
2023-04-24T14:35:47.777Z,2.50
2023-04-24T14:38:14.593Z,1.90
2023-04-24T14:43:27.722Z,2.00
2023-04-24T14:45:54.513Z,2.08
2023-04-24T14:48:21.200Z,1.92
2023-04-24T14:50:47.901Z,2.60
2023-04-24T14:53:15.339Z,1.92
2023-04-24T14:55:41.860Z,2.90
2023-04-24T14:58:08.510Z,2.20
2023-04-24T15:00:35.158Z,2.55
2023-04-24T15:03:02.395Z,1.95
2023-04-24T15:05:29.864Z,2.33
2023-04-24T15:07:56.946Z,2.30
2023-04-24T15:10:24.828Z,2.30
2023-04-24T15:12:51.365Z,2.45
2023-04-24T15:15:18.319Z,2.50
2023-04-24T15:17:44.886Z,2.35
2023-04-24T15:20:11.525Z,2.28
2023-04-24T15:22:38.231Z,2.80
2023-04-24T15:25:05.571Z,2.38
2023-04-24T15:27:46.056Z,2.40
2023-04-24T15:32:56.129Z,2.20
2023-04-24T15:35:22.779Z,2.33
2023-04-24T15:37:50.194Z,3.00
2023-04-24T15:40:16.909Z,2.30
2023-04-24T15:42:43.809Z,2.22
2023-04-24T15:45:10.854Z,2.20
2023-04-24T15:47:37.592Z,2.50
2023-04-24T15:50:04.978Z,2.33
2023-04-24T15:52:31.535Z,2.80
2023-04-24T15:54:58.104Z,2.38
2023-04-24T15:57:24.761Z,2.28
2023-04-24T15:59:51.374Z,2.33
2023-04-24T16:02:21.354Z,2.42
2023-04-24T16:04:48.825Z,2.30
2023-04-24T16:07:15.721Z,2.10
2023-04-24T16:09:42.711Z,6.20
2023-04-24T16:12:10.423Z,2.45
2023-04-24T16:14:37.912Z,2.38
2023-04-24T16:17:05.155Z,5.97
2023-04-24T16:19:34.188Z,2.47
2023-04-24T16:22:00.745Z,4.63
2023-04-24T16:24:28.412Z,2.92
2023-04-24T16:26:56.438Z,2.72
2023-04-24T16:29:22.992Z,5.80
2023-04-24T16:31:49.710Z,6.18
2023-04-24T16:34:16.589Z,3.17
2023-04-24T16:36:54.157Z,2.47
2023-04-24T16:39:22.197Z,2.47
2023-04-24T16:41:49.781Z,3.67
2023-04-24T16:44:16.654Z,2.58
2023-04-24T16:46:43.169Z,2.75
2023-04-24T16:49:09.914Z,2.17
2023-04-24T16:51:36.775Z,3.05
2023-04-24T16:54:03.514Z,2.58
2023-04-24T16:56:30.011Z,3.38
2023-04-24T16:58:56.757Z,2.47
2023-04-24T17:01:23.948Z,2.78
2023-04-24T17:03:50.798Z,3.22
2023-04-24T17:06:17.465Z,2.72
2023-04-24T17:08:43.969Z,2.92
2023-04-24T17:11:10.678Z,2.78
2023-04-24T17:13:37.399Z,2.92
2023-04-24T17:16:04.168Z,2.40
2023-04-24T17:18:30.943Z,2.70
2023-04-24T17:20:57.402Z,2.28
2023-04-24T17:23:24.167Z,2.67
2023-04-24T17:25:50.847Z,2.83
2023-04-24T17:28:24.221Z,2.55
2023-04-24T17:30:51.035Z,2.65
2023-04-24T17:33:17.670Z,2.42
2023-04-24T17:35:44.350Z,2.33
2023-04-24T17:38:10.904Z,2.33
2023-04-24T17:40:38.504Z,2.50
2023-04-24T17:43:05.414Z,2.95
2023-04-24T17:45:32.311Z,2.80
2023-04-24T17:47:58.875Z,4.82
2023-04-24T17:50:25.910Z,3.65
2023-04-24T17:52:52.456Z,4.85
2023-04-24T17:55:19.140Z,3.10
2023-04-24T17:57:45.842Z,2.58
2023-04-24T18:00:12.851Z,2.95
2023-04-24T18:02:39.502Z,3.33
2023-04-24T18:05:06.410Z,2.70
2023-04-24T18:07:34.121Z,3.55
2023-04-24T18:10:00.965Z,2.97
2023-04-24T18:12:27.636Z,3.08
2023-04-24T18:15:02.979Z,4.13
2023-04-24T18:17:40.307Z,3.75
2023-04-24T18:20:07.088Z,3.55
2023-04-24T18:22:33.722Z,4.53
2023-04-24T18:25:00.367Z,3.92
2023-04-24T18:27:30.855Z,3.92
2023-04-24T18:30:00.626Z,3.78
2023-04-24T18:32:27.458Z,5.22
2023-04-24T18:34:54.101Z,3.90
2023-04-24T18:37:20.804Z,3.80
2023-04-24T18:39:47.565Z,3.60
2023-04-24T18:42:14.247Z,5.00
2023-04-24T18:44:42.822Z,3.67
2023-04-24T18:47:10.233Z,3.70
2023-04-24T18:49:37.206Z,3.97
2023-04-24T18:52:12.817Z,3.60
2023-04-24T18:54:39.476Z,3.80
2023-04-24T18:57:06.729Z,3.97
2023-04-24T18:59:33.244Z,3.08
2023-04-24T19:01:59.858Z,3.85
2023-04-24T19:04:29.603Z,3.50
2023-04-24T19:06:59.723Z,3.33
2023-04-24T19:09:32.243Z,3.53
2023-04-24T19:12:00.249Z,3.80
2023-04-24T19:14:32.185Z,3.78
2023-04-24T19:16:59.092Z,3.15
2023-04-24T19:19:27.595Z,3.10
2023-04-24T19:21:54.646Z,3.70
2023-04-24T19:24:24.347Z,3.78
2023-04-24T19:26:52.396Z,3.45
2023-04-24T19:29:19.173Z,3.75
2023-04-24T19:31:48.819Z,3.50
2023-04-24T19:34:15.520Z,3.38
2023-04-24T19:36:43.140Z,2.97
2023-04-24T19:39:09.640Z,3.60
2023-04-24T19:41:38.922Z,3.42
2023-04-24T19:44:05.568Z,3.40
2023-04-24T19:46:32.378Z,3.28
2023-04-24T19:48:59.039Z,3.53
2023-04-24T19:51:26.285Z,3.10
2023-04-24T19:53:53.481Z,3.60
2023-04-24T19:56:20.953Z,3.03
2023-04-24T19:58:49.336Z,3.40
2023-04-24T20:01:26.871Z,3.00
2023-04-24T20:03:53.880Z,3.50
2023-04-24T20:06:20.613Z,3.53
2023-04-24T20:08:47.374Z,3.08
2023-04-24T20:11:14.283Z,3.10
2023-04-24T20:13:41.358Z,2.67
2023-04-24T20:16:11.030Z,2.80
2023-04-24T20:18:38.063Z,3.63
2023-04-24T20:21:04.717Z,3.58
2023-04-24T20:23:31.414Z,3.00
2023-04-24T20:25:58.854Z,2.70
2023-04-24T20:28:30.189Z,2.83
2023-04-24T20:30:57.914Z,2.30
2023-04-24T20:33:24.390Z,3.10
2023-04-24T20:35:52.475Z,2.58
2023-04-24T20:38:19.377Z,3.38
2023-04-24T20:40:57.279Z,3.05
2023-04-24T20:43:29.465Z,3.63
2023-04-24T20:45:58.753Z,3.33
2023-04-24T20:48:32.613Z,4.22
2023-04-24T20:51:02.466Z,3.57
2023-04-24T20:53:34.594Z,3.70
2023-04-24T20:56:04.192Z,3.78
2023-04-24T20:58:30.880Z,3.25
2023-04-24T21:01:01.214Z,4.13
2023-04-24T21:03:30.820Z,3.67
2023-04-24T21:05:57.627Z,4.60
2023-04-24T21:08:31.625Z,4.22
2023-04-24T21:11:09.055Z,3.83
2023-04-24T21:13:35.846Z,4.05
2023-04-24T21:16:05.881Z,3.72
2023-04-24T21:18:33.030Z,3.65
2023-04-24T21:20:59.593Z,3.35
2023-04-24T21:23:26.550Z,4.38
2023-04-24T21:25:53.149Z,3.95
2023-04-24T21:28:19.963Z,4.38
2023-04-24T21:30:46.456Z,3.35
2023-04-24T21:33:13.078Z,3.85
2023-04-24T21:35:39.638Z,4.10
2023-04-24T21:38:06.233Z,3.38
2023-04-24T21:40:32.760Z,3.60
2023-04-24T21:42:59.474Z,3.13
2023-04-24T21:45:26.003Z,3.75
2023-04-24T21:47:52.611Z,3.50
2023-04-24T21:50:19.142Z,3.28
2023-04-24T21:52:45.754Z,3.10
2023-04-24T21:55:12.285Z,4.30
2023-04-24T21:57:38.911Z,3.65
2023-04-24T22:00:07.804Z,3.33
2023-04-24T22:02:35.364Z,3.35
2023-04-24T22:05:04.434Z,3.85
2023-04-24T22:07:34.050Z,3.20
2023-04-24T22:10:00.513Z,3.15
2023-04-24T22:12:27.323Z,3.30
2023-04-24T22:14:53.811Z,3.35
2023-04-24T22:17:20.386Z,3.15
2023-04-24T22:19:47.018Z,3.33
2023-04-24T22:22:13.650Z,3.72
2023-04-24T22:24:40.192Z,3.72
2023-04-24T22:27:06.840Z,3.08
2023-04-24T22:29:33.440Z,2.78
2023-04-24T22:32:00.207Z,2.53
2023-04-24T22:34:27.183Z,3.08
2023-04-24T22:36:58.048Z,3.40
2023-04-24T22:39:24.681Z,3.55
2023-04-24T22:41:51.395Z,3.78
2023-04-24T22:44:18.117Z,3.03
2023-04-24T22:46:45.392Z,2.58
2023-04-24T22:49:12.332Z,2.70
2023-04-24T22:51:40.620Z,2.58
2023-04-24T22:54:07.308Z,3.15
2023-04-24T22:56:34.288Z,2.53
2023-04-24T22:59:00.863Z,3.03
2023-04-24T23:01:27.451Z,2.72
2023-04-24T23:03:54.651Z,2.65
2023-04-24T23:06:21.755Z,3.22
2023-04-24T23:08:48.362Z,3.03
2023-04-24T23:11:15.103Z,3.47
2023-04-24T23:13:43.754Z,3.78
2023-04-24T23:16:17.911Z,4.47
2023-04-24T23:18:44.654Z,3.65
2023-04-24T23:21:12.237Z,3.22
2023-04-24T23:23:38.812Z,3.42
2023-04-24T23:26:05.409Z,3.65
2023-04-24T23:28:32.045Z,3.00
2023-04-24T23:30:58.675Z,3.55
2023-04-24T23:33:25.407Z,3.22
2023-04-24T23:35:52.715Z,3.45
2023-04-24T23:38:19.206Z,3.10
2023-04-24T23:40:46.360Z,3.95
2023-04-24T23:43:12.942Z,3.30
2023-04-24T23:45:40.583Z,3.40
2023-04-24T23:48:07.441Z,3.50
2023-04-24T23:50:34.203Z,3.97
2023-04-24T23:53:00.953Z,3.42
2023-04-24T23:55:27.521Z,3.15
2023-04-24T23:57:54.087Z,2.97
